createdAt,value
2018-08-22T00:00:51.186Z,19.18
2018-08-22T00:03:19.225Z,19.16
2018-08-22T00:05:47.256Z,19.18
2018-08-22T00:08:18.458Z,19.12
2018-08-22T00:10:46.687Z,19.11
2018-08-22T00:13:14.915Z,19.12
2018-08-22T00:15:43.026Z,19.13
2018-08-22T00:18:11.335Z,19.06
2018-08-22T00:20:39.481Z,19.05
2018-08-22T00:23:07.644Z,18.92
2018-08-22T00:25:36.349Z,18.91
2018-08-22T00:28:04.716Z,18.83
2018-08-22T00:30:32.819Z,18.84
2018-08-22T00:33:01.151Z,18.83
2018-08-22T00:35:29.440Z,18.76
2018-08-22T00:37:58.388Z,18.85
2018-08-22T00:40:26.500Z,18.80
2018-08-22T00:42:54.807Z,18.74
2018-08-22T00:45:22.964Z,18.75
2018-08-22T00:47:51.262Z,18.70
2018-08-22T00:50:19.479Z,18.70
2018-08-22T00:52:47.744Z,18.64
2018-08-22T00:55:16.024Z,18.56
2018-08-22T00:57:44.164Z,18.51
2018-08-22T01:00:12.424Z,18.56
2018-08-22T01:02:40.613Z,18.53
2018-08-22T01:05:08.903Z,18.51
2018-08-22T01:07:37.069Z,18.46
2018-08-22T01:10:06.151Z,18.42
2018-08-22T01:12:34.249Z,18.37
2018-08-22T01:15:02.494Z,18.39
2018-08-22T01:17:30.599Z,18.26
2018-08-22T01:19:58.898Z,18.26
2018-08-22T01:22:27.120Z,18.20
2018-08-22T01:24:55.444Z,18.19
2018-08-22T01:27:23.650Z,18.13
2018-08-22T01:29:53.212Z,18.09
2018-08-22T01:32:21.931Z,18.00
2018-08-22T01:34:51.078Z,17.94
2018-08-22T01:37:19.513Z,17.86
2018-08-22T01:39:48.246Z,17.79
2018-08-22T01:42:16.942Z,17.77
2018-08-22T01:44:45.550Z,17.77
2018-08-22T01:47:13.615Z,17.67
2018-08-22T01:49:42.164Z,17.62
2018-08-22T01:52:10.326Z,17.66
2018-08-22T01:54:38.600Z,17.59
2018-08-22T01:57:06.800Z,17.53
2018-08-22T01:59:35.079Z,17.59
2018-08-22T02:02:03.323Z,17.52
2018-08-22T02:04:32.221Z,17.53
2018-08-22T02:07:00.321Z,17.55
2018-08-22T02:09:28.599Z,17.49
2018-08-22T02:11:57.168Z,17.47
2018-08-22T02:14:25.632Z,17.51
2018-08-22T02:16:53.920Z,17.57
2018-08-22T02:19:22.375Z,17.55
2018-08-22T02:21:50.496Z,17.46
2018-08-22T02:24:18.989Z,17.46
2018-08-22T02:26:47.293Z,17.45
2018-08-22T02:29:15.689Z,17.48
2018-08-22T02:31:43.935Z,17.52
2018-08-22T02:34:12.173Z,17.51
2018-08-22T02:36:40.343Z,17.48
2018-08-22T02:39:09.155Z,17.51
2018-08-22T02:41:37.271Z,17.53
2018-08-22T02:44:05.527Z,17.49
2018-08-22T02:46:33.803Z,17.47
2018-08-22T02:49:01.927Z,17.51
2018-08-22T02:51:30.023Z,17.41
2018-08-22T02:53:58.101Z,17.38
2018-08-22T02:56:27.057Z,17.24
2018-08-22T02:58:55.434Z,17.26
2018-08-22T03:01:23.864Z,17.24
2018-08-22T03:03:52.414Z,17.16
2018-08-22T03:06:20.837Z,17.21
2018-08-22T03:08:48.970Z,17.21
2018-08-22T03:11:17.315Z,17.16
2018-08-22T03:13:45.502Z,17.11
2018-08-22T03:16:13.724Z,17.00
2018-08-22T03:18:42.592Z,17.01
2018-08-22T03:21:11.081Z,16.98
2018-08-22T03:23:39.278Z,16.94
2018-08-22T03:26:07.798Z,16.89
2018-08-22T03:28:35.934Z,16.94
2018-08-22T03:31:05.080Z,16.89
2018-08-22T03:33:33.204Z,16.83
2018-08-22T03:36:01.442Z,16.78
2018-08-22T03:38:29.594Z,16.80
2018-08-22T03:40:57.690Z,16.84
2018-08-22T03:43:26.566Z,16.88
2018-08-22T03:45:54.665Z,16.87
2018-08-22T03:48:22.984Z,16.77
2018-08-22T03:50:51.226Z,16.71
2018-08-22T03:53:19.475Z,16.83
2018-08-22T03:55:47.683Z,16.84
2018-08-22T03:58:15.973Z,16.79
2018-08-22T04:00:44.861Z,16.86
2018-08-22T04:03:13.167Z,16.86
2018-08-22T04:05:41.623Z,16.83
2018-08-22T04:08:09.865Z,16.88
2018-08-22T04:10:38.164Z,16.90
2018-08-22T04:13:06.490Z,17.02
2018-08-22T04:15:34.595Z,16.98
2018-08-22T04:18:02.935Z,17.12
2018-08-22T04:20:31.057Z,17.06
2018-08-22T04:22:59.367Z,17.01
2018-08-22T04:25:27.680Z,16.92
2018-08-22T04:27:55.950Z,16.88
2018-08-22T04:30:24.153Z,16.86
2018-08-22T04:32:52.304Z,16.90
2018-08-22T04:35:20.558Z,16.93
2018-08-22T04:37:49.135Z,16.94
2018-08-22T04:40:17.175Z,16.97
2018-08-22T04:42:45.552Z,17.05
2018-08-22T04:45:13.659Z,17.02
2018-08-22T04:47:41.854Z,16.95
2018-08-22T04:50:09.958Z,17.04
2018-08-22T04:52:38.122Z,17.06
2018-08-22T04:55:06.424Z,17.17
2018-08-22T04:57:34.715Z,17.18
2018-08-22T05:00:02.933Z,17.21
2018-08-22T05:02:31.702Z,17.32
2018-08-22T05:04:59.925Z,17.45
2018-08-22T05:07:28.158Z,17.34
2018-08-22T05:09:56.484Z,17.46
2018-08-22T05:12:24.873Z,17.55
2018-08-22T05:14:53.002Z,17.64
2018-08-22T05:17:21.401Z,17.70
2018-08-22T05:19:49.503Z,17.85
2018-08-22T05:22:17.686Z,17.75
2018-08-22T05:24:46.110Z,17.87
2018-08-22T05:27:14.419Z,17.85
2018-08-22T05:29:43.301Z,17.91
2018-08-22T05:32:12.045Z,17.96
2018-08-22T05:34:40.753Z,18.06
2018-08-22T05:37:08.809Z,18.10
2018-08-22T05:39:37.046Z,18.28
2018-08-22T05:42:05.479Z,18.35
2018-08-22T05:44:33.815Z,18.52
2018-08-22T05:47:02.145Z,18.66
2018-08-22T05:49:30.771Z,19.49
2018-08-22T05:51:59.611Z,20.96
2018-08-22T05:54:27.949Z,22.29
2018-08-22T05:56:56.227Z,23.32
2018-08-22T05:59:25.123Z,24.25
2018-08-22T06:01:53.286Z,25.37
2018-08-22T06:04:21.434Z,26.16
2018-08-22T06:06:49.563Z,26.94
2018-08-22T06:09:17.752Z,27.63
2018-08-22T06:11:45.998Z,28.35
2018-08-22T06:14:14.380Z,28.75
2018-08-22T06:16:42.609Z,29.08
2018-08-22T06:19:10.923Z,27.79
2018-08-22T06:21:39.036Z,26.42
2018-08-22T06:24:07.188Z,25.43
2018-08-22T06:26:35.403Z,24.78
2018-08-22T06:29:03.690Z,24.32
2018-08-22T06:31:31.782Z,24.04
2018-08-22T06:34:00.089Z,23.96
2018-08-22T06:36:28.230Z,23.93
2018-08-22T06:38:56.439Z,23.92
2018-08-22T06:41:24.614Z,24.01
2018-08-22T06:43:53.629Z,24.41
2018-08-22T06:46:21.807Z,25.38
2018-08-22T06:48:49.991Z,26.62
2018-08-22T06:51:18.934Z,27.65
2018-08-22T06:53:47.693Z,29.09
2018-08-22T06:56:15.768Z,30.59
2018-08-22T06:58:44.025Z,31.98
2018-08-22T07:01:12.201Z,33.10
2018-08-22T07:03:41.045Z,34.29
2018-08-22T07:06:10.114Z,35.56
2018-08-22T07:08:38.225Z,36.89
2018-08-22T07:11:06.386Z,35.67
2018-08-22T07:13:34.459Z,36.80
2018-08-22T07:16:02.848Z,38.23
2018-08-22T07:18:30.972Z,39.13
2018-08-22T07:20:59.070Z,39.23
2018-08-22T07:23:27.745Z,39.91
2018-08-22T07:25:56.161Z,40.85
2018-08-22T07:28:24.379Z,41.02
2018-08-22T07:30:52.715Z,41.33
2018-08-22T07:33:20.962Z,42.09
2018-08-22T07:35:49.356Z,42.68
2018-08-22T07:38:17.433Z,43.42
2018-08-22T07:40:45.734Z,43.70
2018-08-22T07:43:14.574Z,42.39
2018-08-22T07:45:42.764Z,43.47
2018-08-22T07:48:11.022Z,43.59
2018-08-22T07:50:39.856Z,43.66
2018-08-22T07:53:08.054Z,44.30
2018-08-22T07:55:39.670Z,43.40
2018-08-22T07:58:07.925Z,44.34
2018-08-22T08:00:36.060Z,41.43
2018-08-22T08:03:04.314Z,43.53
2018-08-22T08:05:32.492Z,44.90
2018-08-22T08:08:00.645Z,45.70
2018-08-22T08:10:31.998Z,46.13
2018-08-22T08:13:00.549Z,46.98
2018-08-22T08:15:28.640Z,45.89
2018-08-22T08:17:57.350Z,46.15
2018-08-22T08:20:25.610Z,48.07
2018-08-22T08:22:54.349Z,47.69
2018-08-22T08:25:22.468Z,48.50
2018-08-22T08:27:50.566Z,49.96
2018-08-22T08:30:18.700Z,50.94
2018-08-22T08:32:46.884Z,51.68
2018-08-22T08:35:15.044Z,51.92
2018-08-22T08:37:43.432Z,50.70
2018-08-22T08:40:11.866Z,51.01
2018-08-22T08:42:40.134Z,51.57
2018-08-22T08:45:09.680Z,52.24
2018-08-22T08:47:37.855Z,52.04
2018-08-22T08:50:06.113Z,52.43
2018-08-22T08:52:35.143Z,53.00
2018-08-22T08:55:03.451Z,51.58
2018-08-22T08:57:31.846Z,52.95
2018-08-22T09:00:00.379Z,53.76
2018-08-22T09:02:28.486Z,53.58
2018-08-22T09:04:56.671Z,53.55
2018-08-22T09:07:24.829Z,53.62
2018-08-22T09:09:52.933Z,51.43
2018-08-22T09:12:21.384Z,53.22
2018-08-22T09:14:49.763Z,54.40
2018-08-22T09:17:17.941Z,54.49
2018-08-22T09:19:46.135Z,45.40
2018-08-22T09:22:14.281Z,49.41
2018-08-22T09:24:42.711Z,52.37
2018-08-22T09:27:11.619Z,54.43
2018-08-22T09:29:39.919Z,52.61
2018-08-22T09:32:08.227Z,51.00
2018-08-22T09:34:36.415Z,53.47
2018-08-22T09:37:04.637Z,54.66
2018-08-22T09:39:32.885Z,56.35
2018-08-22T09:42:01.099Z,55.52
2018-08-22T09:44:29.968Z,53.80
2018-08-22T09:46:58.735Z,51.16
2018-08-22T09:49:27.869Z,53.08
2018-08-22T09:51:56.014Z,51.02
2018-08-22T09:54:24.205Z,51.94
2018-08-22T09:56:52.607Z,50.61
2018-08-22T09:59:20.811Z,52.92
2018-08-22T10:01:49.001Z,54.38
2018-08-22T10:04:17.238Z,56.60
2018-08-22T10:06:47.321Z,51.99
2018-08-22T10:09:20.870Z,54.90
2018-08-22T10:11:49.064Z,53.38
2018-08-22T10:14:17.296Z,55.65
2018-08-22T10:16:45.492Z,56.77
2018-08-22T10:19:13.627Z,58.29
2018-08-22T10:21:41.776Z,59.73
2018-08-22T10:24:10.059Z,59.73
2018-08-22T10:26:38.263Z,54.97
2018-08-22T10:29:06.500Z,56.42
2018-08-22T10:31:34.831Z,58.33
2018-08-22T10:34:03.023Z,56.69
2018-08-22T10:36:31.173Z,55.39
2018-08-22T10:38:59.323Z,56.00
2018-08-22T10:41:27.459Z,54.06
2018-08-22T10:43:55.703Z,54.67
2018-08-22T10:46:23.841Z,54.21
2018-08-22T10:48:52.549Z,55.04
2018-08-22T10:51:20.765Z,55.50
2018-08-22T10:53:49.029Z,56.60
2018-08-22T10:56:17.237Z,55.94
2018-08-22T10:58:45.368Z,55.92
2018-08-22T11:01:13.544Z,55.88
2018-08-22T11:03:41.681Z,55.63
2018-08-22T11:06:09.995Z,56.44
2018-08-22T11:08:38.167Z,56.43
2018-08-22T11:11:06.379Z,56.21
2018-08-22T11:13:34.581Z,56.59
2018-08-22T11:16:02.882Z,51.61
2018-08-22T11:18:31.080Z,52.96
2018-08-22T11:21:16.499Z,56.41
2018-08-22T11:24:01.810Z,57.93
2018-08-22T11:26:47.080Z,58.40
2018-08-22T11:29:32.506Z,58.43
2018-08-22T11:32:17.941Z,58.56
2018-08-22T11:34:46.193Z,58.35
2018-08-22T11:37:15.209Z,56.52
2018-08-22T11:39:44.812Z,54.27
2018-08-22T11:42:13.112Z,56.31
2018-08-22T11:44:41.309Z,58.03
2018-08-22T11:47:09.546Z,59.42
2018-08-22T11:49:37.764Z,59.49
2018-08-22T11:52:05.978Z,58.02
2018-08-22T11:54:35.229Z,57.01
2018-08-22T11:57:03.524Z,56.80
2018-08-22T11:59:31.778Z,57.82
2018-08-22T12:02:00.044Z,58.18
2018-08-22T12:04:28.250Z,57.80
2018-08-22T12:06:56.521Z,56.84
2018-08-22T12:09:24.778Z,57.31
2018-08-22T12:11:53.042Z,58.38
2018-08-22T12:14:21.232Z,56.14
2018-08-22T12:16:50.071Z,57.46
2018-08-22T12:19:18.945Z,56.24
2018-08-22T12:21:47.265Z,55.88
2018-08-22T12:24:15.458Z,55.04
2018-08-22T12:26:43.651Z,56.49
2018-08-22T12:29:12.489Z,56.34
2018-08-22T12:31:40.700Z,56.58
2018-08-22T12:34:08.889Z,56.76
2018-08-22T12:36:37.197Z,56.02
2018-08-22T12:39:07.394Z,56.61
2018-08-22T12:41:35.668Z,53.59
2018-08-22T12:44:03.938Z,53.82
2018-08-22T12:46:32.689Z,54.33
2018-08-22T12:49:01.015Z,53.51
2018-08-22T12:51:29.207Z,55.61
2018-08-22T12:53:57.463Z,53.49
2018-08-22T12:56:25.693Z,49.60
2018-08-22T12:58:53.910Z,51.47
2018-08-22T13:01:22.208Z,52.90
2018-08-22T13:03:50.406Z,53.78
2018-08-22T13:06:18.600Z,51.36
2018-08-22T13:08:46.750Z,52.89
2018-08-22T13:11:15.051Z,54.48
2018-08-22T13:13:43.104Z,55.09
2018-08-22T13:16:11.314Z,55.56
2018-08-22T13:18:39.579Z,56.01
2018-08-22T13:21:07.778Z,53.01
2018-08-22T13:23:36.018Z,53.72
2018-08-22T13:26:04.312Z,54.48
2018-08-22T13:28:32.560Z,54.19
2018-08-22T13:31:00.776Z,53.38
2018-08-22T13:33:29.007Z,54.12
2018-08-22T13:35:57.259Z,53.89
2018-08-22T13:38:25.575Z,53.73
2018-08-22T13:40:53.759Z,53.80
2018-08-22T13:43:22.090Z,51.93
2018-08-22T13:45:50.330Z,50.32
2018-08-22T13:48:18.444Z,51.85
2018-08-22T13:50:46.748Z,52.96
2018-08-22T13:53:15.001Z,53.44
2018-08-22T13:55:43.156Z,52.82
2018-08-22T13:58:11.382Z,51.94
2018-08-22T14:00:39.625Z,52.09
2018-08-22T14:03:07.815Z,51.60
2018-08-22T14:05:36.066Z,51.31
2018-08-22T14:08:04.325Z,48.83
2018-08-22T14:10:32.520Z,49.01
2018-08-22T14:13:00.839Z,48.45
2018-08-22T14:15:29.023Z,48.16
2018-08-22T14:18:03.797Z,48.35
2018-08-22T14:20:31.997Z,48.41
2018-08-22T14:23:00.253Z,47.59
2018-08-22T14:25:28.415Z,46.45
2018-08-22T14:27:56.639Z,44.52
2018-08-22T14:30:24.850Z,42.75
2018-08-22T14:32:53.160Z,41.08
2018-08-22T14:35:21.339Z,39.97
2018-08-22T14:37:49.495Z,39.17
2018-08-22T14:40:17.711Z,37.82
2018-08-22T14:42:45.940Z,37.51
2018-08-22T14:45:14.726Z,36.82
2018-08-22T14:47:43.045Z,36.67
2018-08-22T14:50:11.194Z,36.50
2018-08-22T14:52:39.427Z,36.31
2018-08-22T14:55:07.540Z,35.58
2018-08-22T14:57:35.754Z,34.83
2018-08-22T15:00:04.218Z,35.08
2018-08-22T15:02:32.485Z,34.98
2018-08-22T15:05:00.752Z,34.71
2018-08-22T15:07:29.046Z,34.56
2018-08-22T15:09:57.317Z,34.46
2018-08-22T15:12:25.519Z,34.11
2018-08-22T15:14:53.749Z,33.96
2018-08-22T15:17:21.954Z,33.94
2018-08-22T15:19:50.189Z,33.88
2018-08-22T15:22:18.471Z,33.94
2018-08-22T15:24:46.760Z,33.82
2018-08-22T15:27:15.065Z,33.69
2018-08-22T15:29:43.297Z,33.66
2018-08-22T15:32:11.565Z,33.72
2018-08-22T15:34:48.060Z,33.69
2018-08-22T15:37:16.360Z,33.70
2018-08-22T15:39:44.487Z,33.55
2018-08-22T15:42:12.726Z,33.45
2018-08-22T15:44:40.922Z,33.40
2018-08-22T15:47:10.209Z,33.42
2018-08-22T15:49:38.404Z,33.58
2018-08-22T15:52:06.551Z,33.35
2018-08-22T15:54:34.988Z,33.06
2018-08-22T15:57:03.362Z,32.94
2018-08-22T15:59:31.510Z,33.14
2018-08-22T16:01:59.648Z,33.04
2018-08-22T16:04:27.824Z,33.00
2018-08-22T16:07:06.875Z,33.07
2018-08-22T16:09:35.669Z,33.05
2018-08-22T16:12:03.820Z,32.82
2018-08-22T16:14:32.048Z,32.84
2018-08-22T16:17:00.085Z,32.78
2018-08-22T16:19:28.272Z,32.64
2018-08-22T16:21:56.529Z,32.41
2018-08-22T16:24:26.187Z,32.31
2018-08-22T16:26:54.368Z,32.25
2018-08-22T16:29:22.563Z,32.18
2018-08-22T16:31:50.791Z,32.25
2018-08-22T16:34:18.948Z,32.07
2018-08-22T16:36:47.091Z,31.96
2018-08-22T16:39:36.004Z,31.90
2018-08-22T16:42:04.311Z,31.75
2018-08-22T16:44:32.511Z,31.74
2018-08-22T16:47:00.831Z,31.62
2018-08-22T16:49:29.274Z,31.54
2018-08-22T16:51:57.426Z,31.54
2018-08-22T16:54:26.413Z,31.56
2018-08-22T16:56:54.511Z,31.38
2018-08-22T16:59:23.311Z,31.32
2018-08-22T17:01:51.698Z,31.22
2018-08-22T17:04:19.716Z,31.11
2018-08-22T17:06:48.271Z,31.05
2018-08-22T17:09:16.376Z,30.98
2018-08-22T17:11:44.564Z,30.88
2018-08-22T17:14:12.730Z,30.83
2018-08-22T17:16:41.593Z,30.74
2018-08-22T17:19:09.791Z,30.65
2018-08-22T17:21:37.932Z,30.54
2018-08-22T17:24:06.159Z,30.47
2018-08-22T17:26:34.326Z,30.37
2018-08-22T17:29:02.529Z,30.24
2018-08-22T17:31:30.801Z,30.14
2018-08-22T17:34:00.367Z,30.00
2018-08-22T17:36:28.638Z,29.92
2018-08-22T17:38:57.796Z,29.82
2018-08-22T17:41:27.736Z,29.78
2018-08-22T17:44:11.780Z,29.63
2018-08-22T17:46:42.097Z,29.51
2018-08-22T17:49:10.303Z,29.40
2018-08-22T17:52:02.233Z,29.34
2018-08-22T17:54:30.382Z,29.21
2018-08-22T17:57:24.344Z,29.10
2018-08-22T17:59:52.598Z,29.04
2018-08-22T18:02:20.826Z,28.94
2018-08-22T18:04:56.758Z,28.85
2018-08-22T18:07:25.286Z,28.71
2018-08-22T18:09:53.427Z,28.59
2018-08-22T18:12:26.067Z,28.50
2018-08-22T18:14:57.492Z,28.41
2018-08-22T18:17:25.707Z,28.34
2018-08-22T18:19:53.959Z,28.28
2018-08-22T18:22:22.658Z,28.17
2018-08-22T18:24:56.304Z,28.09
2018-08-22T18:27:24.646Z,28.02
2018-08-22T18:29:52.839Z,27.93
2018-08-22T18:32:21.074Z,27.87
2018-08-22T18:35:08.665Z,27.77
2018-08-22T18:37:37.148Z,27.67
2018-08-22T18:40:16.408Z,27.60
2018-08-22T18:42:48.411Z,27.52
2018-08-22T18:45:19.119Z,27.41
2018-08-22T18:47:47.277Z,27.51
2018-08-22T18:50:15.416Z,27.46
2018-08-22T18:52:46.829Z,27.42
2018-08-22T18:55:15.056Z,27.30
2018-08-22T18:57:43.482Z,27.35
2018-08-22T19:00:11.733Z,27.41
2018-08-22T19:02:39.878Z,27.42
2018-08-22T19:05:32.999Z,27.28
2018-08-22T19:08:07.046Z,27.31
2018-08-22T19:10:37.464Z,27.23
2018-08-22T19:13:24.548Z,27.09
2018-08-22T19:15:57.024Z,26.91
2018-08-22T19:18:25.528Z,26.88
2018-08-22T19:20:57.428Z,26.86
2018-08-22T19:23:25.673Z,26.77
2018-08-22T19:25:54.485Z,26.69
2018-08-22T19:28:22.992Z,26.58
2018-08-22T19:30:51.338Z,26.57
2018-08-22T19:33:21.680Z,26.50
2018-08-22T19:35:49.942Z,26.48
2018-08-22T19:38:20.118Z,26.43
2018-08-22T19:40:48.416Z,26.50
2018-08-22T19:43:16.577Z,26.50
2018-08-22T19:45:45.066Z,26.38
2018-08-22T19:48:13.277Z,26.35
2018-08-22T19:50:41.394Z,26.30
2018-08-22T19:53:09.581Z,26.23
2018-08-22T19:55:38.658Z,26.15
2018-08-22T19:58:07.364Z,26.09
2018-08-22T20:00:35.670Z,26.07
2018-08-22T20:03:04.412Z,26.02
2018-08-22T20:05:57.157Z,26.12
2018-08-22T20:08:30.754Z,25.98
2018-08-22T20:10:58.975Z,25.93
2018-08-22T20:13:43.713Z,25.87
2018-08-22T20:16:11.994Z,25.87
2018-08-22T20:18:40.444Z,25.76
2018-08-22T20:21:13.116Z,25.74
2018-08-22T20:23:41.281Z,25.66
2018-08-22T20:26:09.411Z,25.66
2018-08-22T20:28:41.512Z,25.72
2018-08-22T20:31:11.411Z,25.70
2018-08-22T20:33:44.371Z,25.65
2018-08-22T20:36:12.898Z,25.65
2018-08-22T20:38:41.167Z,25.66
2018-08-22T20:41:09.721Z,25.55
2018-08-22T20:43:38.153Z,25.50
2018-08-22T20:46:06.301Z,25.53
2018-08-22T20:48:34.473Z,25.54
2018-08-22T20:51:02.585Z,25.50
2018-08-22T20:53:30.871Z,25.44
2018-08-22T20:55:59.172Z,25.42
2018-08-22T20:58:30.448Z,25.37
2018-08-22T21:00:59.429Z,25.30
2018-08-22T21:03:27.624Z,25.30
2018-08-22T21:05:55.976Z,25.26
2018-08-22T21:08:24.328Z,25.20
2018-08-22T21:10:52.581Z,25.17
2018-08-22T21:13:26.473Z,25.18
2018-08-22T21:15:55.234Z,25.17
2018-08-22T21:18:23.709Z,25.10
2018-08-22T21:20:53.706Z,25.03
2018-08-22T21:23:21.883Z,25.04
2018-08-22T21:25:50.198Z,24.98
2018-08-22T21:28:28.649Z,24.99
2018-08-22T21:31:00.096Z,24.88
2018-08-22T21:33:29.520Z,24.87
2018-08-22T21:35:57.818Z,24.79
2018-08-22T21:38:26.048Z,24.72
2018-08-22T21:40:54.320Z,24.68
2018-08-22T21:43:22.777Z,24.63
2018-08-22T21:45:51.426Z,24.57
2018-08-22T21:48:23.737Z,24.50
2018-08-22T21:50:52.036Z,24.49
2018-08-22T21:53:20.238Z,24.44
2018-08-22T21:55:49.814Z,24.38
2018-08-22T21:58:18.044Z,24.34
2018-08-22T22:00:46.897Z,24.39
2018-08-22T22:03:19.815Z,24.33
2018-08-22T22:05:54.732Z,24.23
2018-08-22T22:08:23.584Z,24.18
2018-08-22T22:10:59.679Z,24.14
2018-08-22T22:13:28.318Z,24.13
2018-08-22T22:16:00.026Z,24.13
2018-08-22T22:18:29.868Z,24.13
2018-08-22T22:21:10.337Z,24.16
2018-08-22T22:23:48.425Z,24.04
2018-08-22T22:26:17.878Z,24.00
2018-08-22T22:28:46.214Z,23.97
2018-08-22T22:31:15.787Z,24.01
2018-08-22T22:33:53.939Z,24.07
2018-08-22T22:36:22.146Z,24.01
2018-08-22T22:38:50.450Z,24.02
2018-08-22T22:41:18.654Z,24.00
2018-08-22T22:43:47.013Z,23.97
2018-08-22T22:46:15.206Z,23.83
2018-08-22T22:48:44.531Z,23.87
2018-08-22T22:51:12.805Z,23.89
2018-08-22T22:53:41.032Z,23.81
2018-08-22T22:56:09.305Z,23.84
2018-08-22T22:58:37.501Z,23.87
2018-08-22T23:01:06.405Z,23.80
2018-08-22T23:03:34.822Z,23.80
2018-08-22T23:06:03.150Z,23.79
2018-08-22T23:08:31.347Z,23.72
2018-08-22T23:10:59.523Z,23.69
2018-08-22T23:13:28.689Z,23.59
2018-08-22T23:15:56.893Z,23.60
2018-08-22T23:18:25.269Z,23.61
2018-08-22T23:20:53.417Z,23.56
2018-08-22T23:23:33.922Z,23.59
2018-08-22T23:26:12.315Z,23.59
2018-08-22T23:28:41.421Z,23.55
2018-08-22T23:31:09.587Z,23.47
2018-08-22T23:33:37.866Z,23.50
2018-08-22T23:36:06.080Z,23.51
2018-08-22T23:38:35.855Z,23.54
2018-08-22T23:41:04.083Z,23.41
2018-08-22T23:43:40.090Z,23.42
2018-08-22T23:46:09.919Z,23.32
2018-08-22T23:48:38.335Z,23.31
2018-08-22T23:51:11.563Z,23.21
2018-08-22T23:53:47.125Z,23.17
2018-08-22T23:56:19.774Z,23.07
2018-08-22T23:58:48.830Z,23.18
